createdAt,value
2023-03-29T00:00:46.854Z,49.36
2023-03-29T00:01:46.823Z,51.51
2023-03-29T00:02:46.854Z,48.14
2023-03-29T00:03:46.849Z,54.19
2023-03-29T00:04:47.820Z,54.56
2023-03-29T00:05:46.794Z,58.09
2023-03-29T00:06:46.769Z,51.37
2023-03-29T00:07:46.780Z,48.51
2023-03-29T00:08:46.726Z,47.06
2023-03-29T00:09:46.737Z,50.14
2023-03-29T00:10:46.750Z,48.66
2023-03-29T00:11:46.724Z,52.10
2023-03-29T00:12:46.693Z,56.48
2023-03-29T00:13:46.710Z,52.59
2023-03-29T00:14:46.733Z,49.41
2023-03-29T00:15:46.686Z,47.52
2023-03-29T00:16:46.868Z,49.57
2023-03-29T00:17:46.705Z,53.72
2023-03-29T00:18:46.654Z,50.62
2023-03-29T00:19:46.652Z,51.29
2023-03-29T00:20:46.609Z,51.21
2023-03-29T00:21:46.602Z,50.65
2023-03-29T00:22:46.657Z,49.78
2023-03-29T00:23:46.566Z,52.08
2023-03-29T00:24:46.589Z,50.32
2023-03-29T00:25:46.575Z,52.61
2023-03-29T00:26:46.582Z,51.93
2023-03-29T00:27:46.546Z,53.22
2023-03-29T00:28:46.554Z,49.83
2023-03-29T00:29:46.602Z,52.09
2023-03-29T00:30:46.500Z,51.69
2023-03-29T00:31:46.546Z,49.64
2023-03-29T00:32:46.506Z,49.81
2023-03-29T00:33:46.485Z,47.40
2023-03-29T00:34:46.479Z,48.20
2023-03-29T00:35:46.515Z,54.49
2023-03-29T00:36:46.455Z,48.26
2023-03-29T00:37:46.439Z,50.71
2023-03-29T00:38:46.443Z,51.09
2023-03-29T00:39:46.405Z,50.56
2023-03-29T00:40:46.424Z,47.61
2023-03-29T00:41:46.408Z,48.17
2023-03-29T00:42:46.387Z,47.65
2023-03-29T00:43:46.367Z,50.84
2023-03-29T00:44:46.381Z,49.76
2023-03-29T00:45:46.353Z,49.99
2023-03-29T00:46:46.367Z,48.73
2023-03-29T00:47:46.407Z,50.42
2023-03-29T00:48:46.355Z,49.08
2023-03-29T00:49:46.318Z,46.23
2023-03-29T00:50:46.300Z,47.13
2023-03-29T00:51:46.311Z,48.23
2023-03-29T00:52:46.330Z,47.94
2023-03-29T00:53:46.266Z,47.29
2023-03-29T00:54:46.245Z,52.24
2023-03-29T00:55:46.268Z,46.51
2023-03-29T00:56:46.240Z,48.81
2023-03-29T00:57:46.228Z,45.63
2023-03-29T00:58:46.236Z,47.14
2023-03-29T00:59:46.220Z,52.50
2023-03-29T01:00:46.192Z,48.63
2023-03-29T01:01:46.235Z,49.97
2023-03-29T01:02:46.226Z,49.08
2023-03-29T01:03:46.388Z,46.23
2023-03-29T01:04:46.196Z,50.35
2023-03-29T01:05:46.161Z,51.66
2023-03-29T01:06:46.182Z,48.75
2023-03-29T01:07:46.145Z,52.29
2023-03-29T01:08:46.133Z,51.03
2023-03-29T01:09:46.128Z,48.17
2023-03-29T01:10:46.087Z,45.91
2023-03-29T01:11:46.109Z,49.52
2023-03-29T01:12:46.056Z,49.79
2023-03-29T01:13:46.065Z,48.15
2023-03-29T01:14:47.076Z,49.44
2023-03-29T01:15:46.055Z,48.59
2023-03-29T01:16:46.105Z,48.17
2023-03-29T01:17:46.051Z,49.61
2023-03-29T01:18:46.043Z,46.72
2023-03-29T01:19:46.010Z,54.53
2023-03-29T01:20:45.995Z,48.57
2023-03-29T01:21:45.992Z,48.20
2023-03-29T01:22:46.003Z,46.37
2023-03-29T01:23:45.991Z,46.15
2023-03-29T01:24:45.958Z,49.86
2023-03-29T01:25:45.952Z,51.60
2023-03-29T01:26:45.970Z,52.74
2023-03-29T01:27:45.919Z,46.79
2023-03-29T01:28:45.938Z,49.85
2023-03-29T01:29:45.906Z,47.14
2023-03-29T01:30:45.884Z,52.29
2023-03-29T01:31:46.001Z,55.63
2023-03-29T01:32:45.936Z,49.69
2023-03-29T01:33:45.885Z,54.10
2023-03-29T01:34:45.834Z,52.89
2023-03-29T01:35:45.895Z,49.40
2023-03-29T01:36:45.809Z,50.04
2023-03-29T01:37:45.818Z,48.04
2023-03-29T01:38:45.836Z,48.32
2023-03-29T01:39:45.811Z,57.25
2023-03-29T01:40:45.789Z,50.85
2023-03-29T01:41:45.771Z,52.35
2023-03-29T01:42:45.774Z,53.15
2023-03-29T01:43:46.766Z,51.51
2023-03-29T01:44:45.776Z,50.45
2023-03-29T01:45:45.754Z,46.83
2023-03-29T01:46:45.735Z,52.16
2023-03-29T01:47:45.746Z,48.38
2023-03-29T01:48:45.716Z,49.52
2023-03-29T01:49:45.692Z,50.83
2023-03-29T01:50:45.685Z,47.47
2023-03-29T01:51:45.676Z,49.17
2023-03-29T01:52:45.674Z,49.78
2023-03-29T01:53:45.649Z,51.45
2023-03-29T01:54:45.624Z,47.46
2023-03-29T01:55:45.653Z,47.91
2023-03-29T01:56:45.661Z,51.48
2023-03-29T01:57:45.607Z,47.98
2023-03-29T01:58:45.584Z,50.25
2023-03-29T01:59:45.601Z,53.33
2023-03-29T02:00:45.580Z,53.12
2023-03-29T02:01:45.603Z,50.67
2023-03-29T02:02:45.714Z,50.92
2023-03-29T02:03:45.642Z,50.57
2023-03-29T02:04:45.519Z,48.05
2023-03-29T02:05:45.518Z,47.03
2023-03-29T02:06:45.534Z,47.38
2023-03-29T02:07:45.498Z,47.12
2023-03-29T02:08:45.553Z,47.04
2023-03-29T02:09:45.489Z,48.33
2023-03-29T02:10:45.472Z,54.70
2023-03-29T02:11:45.460Z,46.30
2023-03-29T02:12:45.481Z,45.75
2023-03-29T02:13:45.450Z,45.38
2023-03-29T02:14:45.412Z,51.80
2023-03-29T02:15:45.483Z,50.34
2023-03-29T02:16:45.423Z,51.15
2023-03-29T02:17:45.429Z,51.87
2023-03-29T02:18:45.405Z,54.40
2023-03-29T02:19:45.387Z,49.91
2023-03-29T02:20:45.355Z,49.30
2023-03-29T02:21:45.356Z,46.77
2023-03-29T02:22:45.385Z,49.84
2023-03-29T02:23:45.371Z,50.51
2023-03-29T02:24:45.320Z,53.84
2023-03-29T02:25:45.321Z,46.58
2023-03-29T02:26:45.327Z,48.81
2023-03-29T02:27:45.301Z,46.16
2023-03-29T02:28:45.276Z,47.27
2023-03-29T02:29:45.281Z,51.17
2023-03-29T02:30:45.290Z,50.67
2023-03-29T02:31:45.383Z,49.80
2023-03-29T02:32:45.286Z,62.44
2023-03-29T02:33:45.281Z,49.65
2023-03-29T02:34:45.232Z,49.33
2023-03-29T02:35:45.230Z,47.18
2023-03-29T02:36:45.213Z,52.09
2023-03-29T02:37:45.220Z,48.37
2023-03-29T02:38:45.182Z,49.34
2023-03-29T02:39:45.184Z,52.16
2023-03-29T02:40:45.154Z,49.44
2023-03-29T02:41:45.157Z,49.19
2023-03-29T02:42:45.153Z,48.28
2023-03-29T02:43:45.138Z,52.70
2023-03-29T02:44:45.103Z,51.94
2023-03-29T02:45:45.101Z,49.84
2023-03-29T02:46:45.149Z,53.77
2023-03-29T02:47:45.150Z,51.27
2023-03-29T02:48:45.108Z,49.97
2023-03-29T02:49:45.091Z,49.54
2023-03-29T02:50:45.041Z,49.36
2023-03-29T02:51:45.058Z,49.76
2023-03-29T02:52:45.062Z,49.35
2023-03-29T02:53:45.038Z,47.48
2023-03-29T02:54:45.001Z,53.72
2023-03-29T02:55:45.007Z,47.71
2023-03-29T02:56:45.085Z,47.64
2023-03-29T02:57:44.994Z,48.53
2023-03-29T02:58:45.019Z,52.48
2023-03-29T02:59:44.986Z,48.66
2023-03-29T03:00:44.937Z,51.68
2023-03-29T03:01:45.080Z,55.84
2023-03-29T03:02:45.033Z,52.55
2023-03-29T03:03:45.044Z,54.63
2023-03-29T03:04:44.973Z,52.23
2023-03-29T03:05:44.908Z,51.29
2023-03-29T03:06:44.893Z,53.50
2023-03-29T03:07:44.890Z,55.72
2023-03-29T03:08:44.903Z,51.92
2023-03-29T03:09:45.888Z,50.05
2023-03-29T03:10:44.844Z,51.55
2023-03-29T03:11:44.862Z,52.37
2023-03-29T03:12:44.829Z,53.59
2023-03-29T03:13:44.824Z,51.81
2023-03-29T03:14:44.825Z,51.15
2023-03-29T03:15:44.809Z,53.21
2023-03-29T03:16:44.906Z,55.13
2023-03-29T03:18:16.780Z,49.66
2023-03-29T03:18:44.777Z,50.47
2023-03-29T03:19:44.799Z,54.18
2023-03-29T03:20:44.752Z,55.24
2023-03-29T03:21:44.785Z,53.34
2023-03-29T03:22:44.737Z,55.44
2023-03-29T03:23:44.747Z,53.09
2023-03-29T03:24:44.731Z,53.23
2023-03-29T03:25:44.714Z,54.08
2023-03-29T03:26:44.719Z,55.76
2023-03-29T03:27:44.688Z,54.88
2023-03-29T03:28:44.682Z,51.66
2023-03-29T03:29:44.648Z,56.22
2023-03-29T03:30:44.657Z,54.37
2023-03-29T03:31:44.794Z,54.83
2023-03-29T03:32:44.754Z,53.09
2023-03-29T03:33:44.651Z,57.49
2023-03-29T03:34:44.616Z,58.54
2023-03-29T03:35:44.618Z,54.87
2023-03-29T03:36:44.577Z,56.97
2023-03-29T03:37:44.572Z,60.64
2023-03-29T03:38:44.594Z,53.04
2023-03-29T03:39:44.545Z,60.13
2023-03-29T03:40:44.557Z,56.87
2023-03-29T03:41:44.530Z,56.58
2023-03-29T03:42:44.539Z,59.69
2023-03-29T03:43:44.506Z,58.69
2023-03-29T03:44:44.519Z,55.87
2023-03-29T03:45:44.536Z,54.41
2023-03-29T03:46:44.515Z,56.25
2023-03-29T03:47:44.524Z,56.71
2023-03-29T03:48:44.455Z,56.66
2023-03-29T03:49:44.449Z,58.74
2023-03-29T03:50:44.433Z,58.36
2023-03-29T03:51:44.424Z,56.56
2023-03-29T03:52:44.457Z,59.77
2023-03-29T03:53:44.429Z,57.57
2023-03-29T03:54:44.412Z,59.10
2023-03-29T03:55:44.379Z,54.68
2023-03-29T03:56:44.393Z,57.24
2023-03-29T03:57:44.363Z,56.22
2023-03-29T03:58:44.379Z,55.87
2023-03-29T03:59:44.335Z,58.92
2023-03-29T04:00:44.322Z,53.30
2023-03-29T04:01:44.356Z,56.38
2023-03-29T04:02:44.431Z,58.39
2023-03-29T04:03:44.338Z,56.80
2023-03-29T04:04:44.283Z,55.89
2023-03-29T04:05:44.300Z,54.63
2023-03-29T04:06:44.283Z,58.03
2023-03-29T04:07:44.289Z,54.75
2023-03-29T04:08:44.258Z,56.84
2023-03-29T04:09:44.230Z,58.57
2023-03-29T04:10:44.233Z,54.80
2023-03-29T04:11:44.300Z,57.53
2023-03-29T04:12:44.226Z,59.02
2023-03-29T04:13:44.188Z,57.63
2023-03-29T04:14:44.184Z,55.82
2023-03-29T04:15:44.205Z,56.75
2023-03-29T04:16:44.181Z,58.52
2023-03-29T04:17:44.218Z,58.50
2023-03-29T04:18:44.291Z,57.83
2023-03-29T04:19:44.158Z,58.43
2023-03-29T04:20:44.129Z,56.37
2023-03-29T04:21:44.134Z,56.76
2023-03-29T04:22:44.124Z,57.65
2023-03-29T04:23:44.116Z,57.94
2023-03-29T04:24:44.110Z,56.99
2023-03-29T04:25:44.074Z,57.82
2023-03-29T04:26:44.053Z,58.39
2023-03-29T04:27:44.054Z,58.50
2023-03-29T04:28:44.040Z,58.60
2023-03-29T04:29:44.034Z,59.93
2023-03-29T04:30:44.027Z,59.84
2023-03-29T04:31:44.053Z,58.44
2023-03-29T04:32:44.094Z,62.13
2023-03-29T04:33:44.010Z,59.15
2023-03-29T04:34:43.993Z,60.39
2023-03-29T04:35:44.066Z,59.81
2023-03-29T04:36:44.050Z,58.69
2023-03-29T04:37:43.998Z,60.93
2023-03-29T04:38:47.378Z,61.15
2023-03-29T04:39:44.974Z,58.27
2023-03-29T04:40:44.114Z,63.43
2023-03-29T04:41:43.902Z,63.12
2023-03-29T04:42:43.918Z,63.41
2023-03-29T04:43:43.901Z,60.94
2023-03-29T04:44:43.984Z,61.64
2023-03-29T04:45:43.882Z,61.25
2023-03-29T04:46:43.890Z,62.76
2023-03-29T04:47:43.906Z,60.31
2023-03-29T04:48:43.862Z,59.11
2023-03-29T04:49:43.859Z,58.94
2023-03-29T04:50:43.823Z,59.49
2023-03-29T04:51:43.830Z,59.57
2023-03-29T04:52:43.796Z,58.81
2023-03-29T04:53:43.800Z,60.83
2023-03-29T04:54:43.793Z,61.52
2023-03-29T04:55:43.768Z,60.83
2023-03-29T04:56:43.807Z,65.40
2023-03-29T04:57:43.758Z,62.84
2023-03-29T04:58:43.757Z,60.43
2023-03-29T04:59:43.711Z,59.83
2023-03-29T05:00:44.728Z,58.57
2023-03-29T05:01:43.787Z,60.39
2023-03-29T05:02:43.721Z,61.61
2023-03-29T05:03:43.718Z,61.16
2023-03-29T05:04:43.718Z,59.26
2023-03-29T05:05:43.675Z,60.20
2023-03-29T05:06:43.684Z,60.53
2023-03-29T05:07:43.637Z,61.34
2023-03-29T05:08:43.630Z,58.58
2023-03-29T05:09:43.625Z,59.12
2023-03-29T05:10:43.654Z,58.99
2023-03-29T05:11:43.646Z,58.48
2023-03-29T05:12:43.599Z,59.43
2023-03-29T05:13:43.595Z,58.88
2023-03-29T05:14:43.604Z,59.68
2023-03-29T05:15:43.566Z,61.45
2023-03-29T05:16:43.575Z,60.66
2023-03-29T05:17:43.566Z,60.10
2023-03-29T05:18:43.512Z,61.35
2023-03-29T05:19:43.539Z,59.87
2023-03-29T05:20:43.499Z,62.28
2023-03-29T05:21:45.397Z,60.14
2023-03-29T05:22:44.516Z,60.61
2023-03-29T05:23:43.481Z,59.01
2023-03-29T05:24:43.461Z,60.20
2023-03-29T05:25:43.459Z,63.84
2023-03-29T05:26:43.446Z,62.97
2023-03-29T05:27:43.427Z,62.05
2023-03-29T05:28:43.417Z,60.19
2023-03-29T05:29:43.410Z,61.73
2023-03-29T05:30:43.435Z,61.63
2023-03-29T05:31:43.403Z,58.87
2023-03-29T05:32:43.406Z,60.94
2023-03-29T05:33:43.393Z,61.24
2023-03-29T05:34:43.429Z,59.37
2023-03-29T05:35:43.392Z,60.24
2023-03-29T05:36:43.357Z,62.42
2023-03-29T05:37:43.336Z,62.49
2023-03-29T05:38:43.307Z,62.88
2023-03-29T05:39:43.317Z,61.33
2023-03-29T05:40:43.314Z,62.06
2023-03-29T05:41:43.287Z,59.56
2023-03-29T05:42:43.277Z,59.95
2023-03-29T05:43:43.249Z,62.96
2023-03-29T05:44:43.253Z,62.00
2023-03-29T05:45:43.326Z,62.80
2023-03-29T05:46:43.226Z,60.29
2023-03-29T05:47:43.293Z,63.17
2023-03-29T05:48:43.223Z,64.18
2023-03-29T05:49:43.205Z,61.71
2023-03-29T05:50:45.126Z,61.76
2023-03-29T05:51:44.200Z,63.48
2023-03-29T05:52:43.202Z,59.99
2023-03-29T05:53:43.183Z,64.69
2023-03-29T05:54:43.164Z,59.84
2023-03-29T05:55:43.141Z,62.19
2023-03-29T05:56:43.158Z,63.56
2023-03-29T05:57:43.115Z,61.67
2023-03-29T05:58:43.099Z,59.76
2023-03-29T05:59:43.090Z,61.13
2023-03-29T06:00:43.082Z,62.15
2023-03-29T06:01:43.082Z,61.89
2023-03-29T06:02:43.143Z,60.30
2023-03-29T06:03:43.298Z,60.24
2023-03-29T06:04:43.154Z,60.30
2023-03-29T06:05:43.028Z,61.86
2023-03-29T06:06:43.016Z,62.50
2023-03-29T06:07:43.015Z,60.49
2023-03-29T06:08:43.005Z,58.54
2023-03-29T06:09:43.019Z,62.46
2023-03-29T06:10:42.999Z,61.62
2023-03-29T06:11:42.989Z,64.03
2023-03-29T06:12:42.964Z,61.66
2023-03-29T06:13:42.961Z,60.08
2023-03-29T06:14:42.960Z,56.97
2023-03-29T06:15:42.930Z,58.82
2023-03-29T06:16:43.048Z,59.31
2023-03-29T06:17:42.954Z,61.21
2023-03-29T06:18:42.889Z,61.04
2023-03-29T06:19:42.880Z,58.97
2023-03-29T06:20:42.880Z,61.68
2023-03-29T06:21:42.851Z,61.13
2023-03-29T06:22:42.862Z,58.41
2023-03-29T06:23:42.876Z,59.30
2023-03-29T06:24:42.848Z,58.48
2023-03-29T06:25:42.824Z,58.88
2023-03-29T06:26:42.813Z,59.55
2023-03-29T06:27:42.808Z,59.75
2023-03-29T06:28:42.787Z,62.31
2023-03-29T06:29:42.772Z,59.64
2023-03-29T06:30:42.757Z,62.78
2023-03-29T06:31:42.792Z,59.31
2023-03-29T06:32:42.796Z,63.71
2023-03-29T06:33:42.763Z,60.36
2023-03-29T06:34:42.759Z,62.36
2023-03-29T06:35:42.724Z,59.16
2023-03-29T06:36:42.715Z,59.32
2023-03-29T06:37:42.693Z,60.27
2023-03-29T06:38:42.709Z,58.18
2023-03-29T06:39:42.687Z,59.94
2023-03-29T06:40:42.676Z,57.67
2023-03-29T06:41:42.653Z,64.32
2023-03-29T06:42:42.647Z,61.70
2023-03-29T06:43:42.646Z,60.34
2023-03-29T06:44:42.622Z,58.16
2023-03-29T06:45:42.640Z,57.70
2023-03-29T06:46:42.630Z,58.04
2023-03-29T06:47:42.647Z,59.58
2023-03-29T06:48:42.605Z,59.32
2023-03-29T06:49:42.577Z,61.36
2023-03-29T06:50:42.600Z,59.58
2023-03-29T06:51:42.563Z,61.79
2023-03-29T06:52:42.528Z,57.96
2023-03-29T06:53:42.526Z,56.92
2023-03-29T06:54:42.537Z,62.36
2023-03-29T06:55:42.507Z,63.77
2023-03-29T06:56:42.552Z,65.95
2023-03-29T06:57:42.501Z,57.54
2023-03-29T06:58:42.500Z,58.44
2023-03-29T06:59:42.484Z,58.74
2023-03-29T07:00:42.472Z,57.23
2023-03-29T07:01:42.463Z,59.73
2023-03-29T07:02:42.503Z,57.97
2023-03-29T07:03:44.180Z,58.25
2023-03-29T07:04:42.493Z,60.91
2023-03-29T07:05:42.410Z,56.79
2023-03-29T07:06:42.396Z,59.13
2023-03-29T07:07:42.393Z,59.23
2023-03-29T07:08:42.374Z,60.02
2023-03-29T07:09:42.387Z,57.44
2023-03-29T07:10:42.352Z,57.39
2023-03-29T07:11:42.370Z,58.57
2023-03-29T07:12:42.344Z,59.66
2023-03-29T07:13:42.416Z,59.33
2023-03-29T07:14:44.089Z,61.89
2023-03-29T07:15:42.298Z,58.53
2023-03-29T07:16:42.365Z,59.60
2023-03-29T07:17:42.314Z,61.19
2023-03-29T07:18:42.265Z,61.95
2023-03-29T07:19:42.264Z,58.77
2023-03-29T07:20:42.249Z,61.04
2023-03-29T07:21:42.232Z,57.82
2023-03-29T07:22:42.224Z,56.25
2023-03-29T07:23:42.225Z,57.13
2023-03-29T07:24:42.185Z,61.30
2023-03-29T07:25:42.182Z,62.34
2023-03-29T07:26:52.343Z,59.30
2023-03-29T07:27:44.163Z,57.76
2023-03-29T07:28:42.170Z,56.99
2023-03-29T07:29:42.145Z,60.06
2023-03-29T07:30:42.152Z,59.27
2023-03-29T07:31:42.124Z,62.48
2023-03-29T07:32:42.264Z,57.69
2023-03-29T07:33:42.233Z,62.28
2023-03-29T07:34:42.087Z,62.62
2023-03-29T07:35:42.122Z,58.05
2023-03-29T07:36:42.062Z,58.16
2023-03-29T07:37:42.048Z,57.56
2023-03-29T07:38:42.069Z,60.28
2023-03-29T07:39:42.048Z,58.29
2023-03-29T07:40:42.020Z,60.32
2023-03-29T07:41:42.117Z,62.26
2023-03-29T07:42:42.033Z,58.40
2023-03-29T07:43:42.019Z,56.09
2023-03-29T07:44:41.998Z,58.63
2023-03-29T07:45:42.008Z,60.04
2023-03-29T07:46:41.972Z,58.71
2023-03-29T07:47:41.964Z,62.14
2023-03-29T07:48:41.932Z,59.34
2023-03-29T07:49:41.917Z,57.62
2023-03-29T07:50:41.918Z,61.76
2023-03-29T07:51:41.905Z,63.29
2023-03-29T07:52:41.912Z,57.05
2023-03-29T07:53:41.905Z,58.06
2023-03-29T07:54:41.909Z,58.55
2023-03-29T07:55:44.660Z,59.06
2023-03-29T07:56:41.901Z,58.83
2023-03-29T07:57:41.838Z,58.97
2023-03-29T07:58:41.842Z,61.02
2023-03-29T07:59:41.822Z,59.04
2023-03-29T08:00:41.811Z,60.35
2023-03-29T08:01:41.802Z,57.41
2023-03-29T08:02:41.829Z,60.03
2023-03-29T08:03:41.779Z,57.50
2023-03-29T08:04:41.822Z,58.18
2023-03-29T08:05:42.267Z,60.10
2023-03-29T08:06:41.741Z,59.06
2023-03-29T08:07:41.722Z,58.36
2023-03-29T08:08:41.723Z,59.42
2023-03-29T08:09:41.704Z,62.54
2023-03-29T08:10:41.716Z,58.15
2023-03-29T08:11:41.709Z,57.33
2023-03-29T08:12:41.666Z,66.25
2023-03-29T08:13:41.670Z,58.20
2023-03-29T08:14:41.656Z,58.19
2023-03-29T08:15:41.655Z,57.47
2023-03-29T08:16:41.686Z,54.47
2023-03-29T08:17:41.652Z,60.05
2023-03-29T08:18:41.613Z,56.58
2023-03-29T08:19:41.614Z,58.38
2023-03-29T08:20:42.625Z,59.00
2023-03-29T08:21:41.568Z,60.71
2023-03-29T08:22:41.567Z,61.96
2023-03-29T08:23:41.549Z,59.60
2023-03-29T08:24:41.560Z,58.79
2023-03-29T08:25:41.517Z,61.07
2023-03-29T08:26:41.533Z,57.23
2023-03-29T08:27:41.552Z,61.85
2023-03-29T08:28:41.501Z,61.67
2023-03-29T08:29:41.483Z,59.93
2023-03-29T08:30:41.531Z,61.33
2023-03-29T08:31:41.508Z,60.79
2023-03-29T08:32:41.511Z,60.77
2023-03-29T08:33:41.465Z,58.50
2023-03-29T08:34:41.413Z,60.72
2023-03-29T08:35:41.464Z,59.64
2023-03-29T08:36:41.414Z,60.38
2023-03-29T08:37:41.434Z,58.61
2023-03-29T08:38:41.385Z,59.65
2023-03-29T08:39:41.398Z,62.64
2023-03-29T08:40:41.378Z,56.97
2023-03-29T08:41:41.333Z,57.41
2023-03-29T08:42:41.344Z,58.17
2023-03-29T08:43:41.365Z,61.97
2023-03-29T08:44:41.333Z,61.12
2023-03-29T08:45:41.332Z,61.37
2023-03-29T08:46:41.382Z,55.92
2023-03-29T08:47:41.318Z,61.21
2023-03-29T08:48:41.274Z,56.94
2023-03-29T08:49:41.273Z,58.19
2023-03-29T08:50:41.260Z,63.92
2023-03-29T08:51:41.236Z,62.43
2023-03-29T08:52:41.246Z,59.12
2023-03-29T08:53:41.215Z,59.86
2023-03-29T08:54:41.217Z,59.77
2023-03-29T08:55:41.193Z,60.16
2023-03-29T08:56:41.187Z,61.24
2023-03-29T08:57:41.228Z,65.52
2023-03-29T08:58:41.151Z,62.87
2023-03-29T08:59:41.170Z,59.14
2023-03-29T09:00:41.129Z,60.46
2023-03-29T09:01:41.127Z,61.04
2023-03-29T09:02:41.198Z,60.59
2023-03-29T09:03:41.235Z,59.52
2023-03-29T09:04:41.080Z,61.11
2023-03-29T09:05:41.128Z,62.81
2023-03-29T09:06:41.075Z,60.27
2023-03-29T09:07:41.070Z,58.82
2023-03-29T09:08:41.075Z,60.83
2023-03-29T09:09:41.032Z,59.51
2023-03-29T09:10:41.079Z,62.32
2023-03-29T09:11:41.042Z,60.40
2023-03-29T09:12:41.000Z,60.79
2023-03-29T09:13:41.000Z,58.73
2023-03-29T09:14:40.980Z,58.74
2023-03-29T09:15:41.022Z,59.65
2023-03-29T09:16:40.977Z,59.75
2023-03-29T09:17:40.966Z,60.17
2023-03-29T09:19:13.150Z,58.30
2023-03-29T09:19:40.892Z,56.29
2023-03-29T09:20:40.918Z,59.20
2023-03-29T09:21:40.925Z,62.42
2023-03-29T09:22:40.889Z,62.11
2023-03-29T09:23:40.859Z,59.23
2023-03-29T09:24:40.895Z,58.62
2023-03-29T09:25:50.716Z,62.66
2023-03-29T09:26:42.826Z,63.36
2023-03-29T09:27:40.857Z,61.18
2023-03-29T09:28:40.847Z,60.32
2023-03-29T09:29:40.794Z,59.77
2023-03-29T09:30:40.783Z,62.71
2023-03-29T09:31:40.822Z,63.00
2023-03-29T09:32:40.784Z,62.71
2023-03-29T09:33:40.748Z,60.27
2023-03-29T09:34:40.756Z,61.23
2023-03-29T09:35:40.769Z,58.93
2023-03-29T09:36:40.716Z,61.58
2023-03-29T09:37:40.739Z,61.05
2023-03-29T09:38:40.702Z,62.08
2023-03-29T09:39:40.665Z,60.83
2023-03-29T09:40:40.684Z,59.24
2023-03-29T09:41:40.683Z,61.64
2023-03-29T09:42:40.633Z,60.31
2023-03-29T09:43:40.659Z,61.27
2023-03-29T09:44:40.646Z,59.09
2023-03-29T09:45:40.649Z,58.60
2023-03-29T09:46:40.592Z,58.99
2023-03-29T09:47:40.667Z,61.16
2023-03-29T09:48:41.583Z,61.31
2023-03-29T09:49:40.593Z,57.47
2023-03-29T09:50:40.563Z,61.56
2023-03-29T09:51:40.567Z,59.29
2023-03-29T09:52:40.543Z,59.40
2023-03-29T09:53:40.592Z,58.55
2023-03-29T09:54:40.505Z,61.91
2023-03-29T09:55:40.514Z,59.15
2023-03-29T09:56:40.594Z,60.06
2023-03-29T09:57:40.456Z,60.64
2023-03-29T09:58:40.496Z,63.14
2023-03-29T09:59:40.445Z,62.04
2023-03-29T10:00:40.431Z,59.69
2023-03-29T10:01:40.491Z,63.94
2023-03-29T10:02:40.485Z,60.70
2023-03-29T10:03:40.396Z,61.17
2023-03-29T10:04:40.456Z,59.59
2023-03-29T10:05:40.417Z,60.51
2023-03-29T10:06:40.364Z,58.14
2023-03-29T10:07:40.395Z,59.18
2023-03-29T10:08:40.365Z,59.70
2023-03-29T10:09:40.340Z,58.48
2023-03-29T10:10:40.340Z,59.27
2023-03-29T10:11:40.349Z,60.45
2023-03-29T10:12:40.324Z,59.02
2023-03-29T10:13:40.279Z,58.27
2023-03-29T10:14:40.313Z,59.60
2023-03-29T10:15:40.301Z,60.79
2023-03-29T10:16:40.429Z,58.77
2023-03-29T10:17:40.337Z,63.04
2023-03-29T10:18:40.261Z,61.56
2023-03-29T10:19:40.218Z,62.19
2023-03-29T10:20:40.231Z,58.88
2023-03-29T10:21:40.232Z,59.24
2023-03-29T10:22:40.197Z,61.39
2023-03-29T10:23:40.241Z,60.17
2023-03-29T10:24:40.185Z,58.85
2023-03-29T10:25:42.297Z,58.75
2023-03-29T10:26:41.156Z,61.68
2023-03-29T10:27:40.136Z,58.68
2023-03-29T10:28:40.122Z,59.62
2023-03-29T10:29:40.136Z,59.62
2023-03-29T10:30:40.164Z,60.17
2023-03-29T10:31:40.170Z,60.43
2023-03-29T10:32:40.154Z,62.13
2023-03-29T10:33:40.066Z,62.76
2023-03-29T10:34:40.057Z,59.79
2023-03-29T10:35:40.097Z,57.87
2023-03-29T10:36:40.061Z,60.61
2023-03-29T10:37:40.026Z,57.47
2023-03-29T10:38:40.036Z,58.85
2023-03-29T10:39:40.004Z,59.02
2023-03-29T10:40:39.998Z,60.94
2023-03-29T10:41:40.020Z,60.18
2023-03-29T10:42:40.042Z,60.57
2023-03-29T10:43:39.951Z,57.58
2023-03-29T10:44:39.963Z,60.30
2023-03-29T10:45:39.953Z,60.45
2023-03-29T10:46:40.067Z,59.46
2023-03-29T10:47:40.543Z,63.23
2023-03-29T10:48:39.930Z,60.33
2023-03-29T10:49:39.883Z,55.22
2023-03-29T10:50:39.883Z,59.52
2023-03-29T10:51:39.890Z,56.52
2023-03-29T10:52:39.870Z,59.07
2023-03-29T10:53:39.867Z,61.00
2023-03-29T10:54:39.892Z,59.89
2023-03-29T10:55:39.843Z,59.10
2023-03-29T10:56:39.883Z,60.74
2023-03-29T10:57:39.807Z,55.71
2023-03-29T10:58:39.799Z,55.37
2023-03-29T10:59:39.804Z,54.99
2023-03-29T11:00:39.771Z,56.02
2023-03-29T11:01:39.818Z,57.88
2023-03-29T11:02:39.904Z,59.48
2023-03-29T11:03:39.780Z,58.82
2023-03-29T11:04:39.731Z,57.81
2023-03-29T11:05:39.744Z,56.51
2023-03-29T11:06:39.711Z,58.99
2023-03-29T11:07:39.678Z,59.30
2023-03-29T11:08:39.687Z,63.73
2023-03-29T11:09:39.744Z,56.80
2023-03-29T11:10:39.666Z,59.07
2023-03-29T11:11:39.685Z,58.41
2023-03-29T11:12:39.669Z,62.01
2023-03-29T11:13:39.627Z,60.20
2023-03-29T11:14:39.620Z,60.96
2023-03-29T11:15:39.663Z,61.44
2023-03-29T11:16:39.605Z,60.32
2023-03-29T11:17:40.603Z,59.82
2023-03-29T11:18:39.606Z,60.09
2023-03-29T11:19:39.559Z,57.82
2023-03-29T11:20:39.567Z,60.93
2023-03-29T11:21:39.577Z,60.53
2023-03-29T11:22:39.533Z,59.99
2023-03-29T11:23:39.533Z,59.92
2023-03-29T11:24:39.513Z,58.70
2023-03-29T11:25:39.514Z,61.24
2023-03-29T11:26:39.493Z,60.80
2023-03-29T11:27:39.505Z,61.29
2023-03-29T11:28:39.496Z,59.11
2023-03-29T11:29:39.469Z,62.06
2023-03-29T11:30:40.443Z,59.25
2023-03-29T11:31:39.501Z,62.92
2023-03-29T11:32:39.463Z,62.89
2023-03-29T11:33:39.414Z,59.06
2023-03-29T11:34:39.441Z,63.55
2023-03-29T11:35:39.440Z,61.54
2023-03-29T11:36:39.385Z,59.03
2023-03-29T11:37:39.398Z,59.73
2023-03-29T11:38:39.367Z,62.94
2023-03-29T11:39:39.339Z,60.26
2023-03-29T11:40:39.383Z,60.07
2023-03-29T11:41:39.377Z,62.85
2023-03-29T11:42:39.318Z,62.38
2023-03-29T11:43:39.336Z,60.73
2023-03-29T11:44:39.300Z,61.96
2023-03-29T11:45:39.281Z,61.88
2023-03-29T11:46:39.358Z,60.73
2023-03-29T11:47:39.316Z,61.31
2023-03-29T11:48:39.280Z,62.32
2023-03-29T11:49:39.232Z,62.21
2023-03-29T11:50:39.247Z,60.55
2023-03-29T11:51:39.238Z,62.34
2023-03-29T11:52:39.211Z,58.29
2023-03-29T11:53:39.214Z,57.89
2023-03-29T11:54:39.211Z,60.12
2023-03-29T11:55:39.170Z,63.40
2023-03-29T11:56:39.238Z,60.46
2023-03-29T11:57:39.172Z,58.85
2023-03-29T11:58:39.348Z,60.76
2023-03-29T11:59:40.149Z,59.07
2023-03-29T12:00:39.177Z,63.31
2023-03-29T12:01:39.173Z,62.40
2023-03-29T12:02:39.227Z,59.78
2023-03-29T12:03:39.192Z,59.05
2023-03-29T12:04:39.075Z,58.16
2023-03-29T12:05:39.088Z,60.35
2023-03-29T12:06:39.039Z,60.15
2023-03-29T12:07:39.088Z,61.74
2023-03-29T12:08:39.040Z,60.96
2023-03-29T12:09:39.021Z,62.86
2023-03-29T12:10:39.017Z,60.48
2023-03-29T12:11:39.039Z,60.24
2023-03-29T12:12:39.009Z,58.99
2023-03-29T12:13:39.005Z,59.84
2023-03-29T12:14:38.985Z,62.02
2023-03-29T12:15:38.948Z,60.47
2023-03-29T12:16:38.983Z,60.16
2023-03-29T12:17:38.978Z,60.61
2023-03-29T12:18:38.933Z,59.26
2023-03-29T12:19:42.714Z,58.45
2023-03-29T12:20:39.901Z,60.35
2023-03-29T12:21:38.906Z,61.32
2023-03-29T12:22:38.912Z,62.12
2023-03-29T12:23:38.877Z,61.74
2023-03-29T12:24:38.867Z,62.52
2023-03-29T12:25:38.845Z,61.21
2023-03-29T12:26:38.835Z,60.67
2023-03-29T12:27:38.850Z,61.91
2023-03-29T12:28:38.815Z,63.37
2023-03-29T12:29:38.782Z,61.07
2023-03-29T12:30:38.782Z,61.81
2023-03-29T12:31:38.822Z,61.07
2023-03-29T12:32:38.829Z,65.83
2023-03-29T12:33:38.744Z,62.95
2023-03-29T12:34:38.764Z,61.69
2023-03-29T12:35:38.760Z,59.91
2023-03-29T12:36:38.741Z,59.99
2023-03-29T12:37:38.737Z,59.39
2023-03-29T12:38:38.724Z,60.94
2023-03-29T12:39:38.709Z,62.20
2023-03-29T12:40:38.730Z,62.04
2023-03-29T12:41:38.703Z,61.08
2023-03-29T12:42:38.684Z,66.34
2023-03-29T12:43:38.652Z,61.45
2023-03-29T12:44:38.652Z,62.81
2023-03-29T12:45:38.690Z,62.52
2023-03-29T12:46:38.646Z,61.22
2023-03-29T12:47:38.695Z,61.41
2023-03-29T12:48:38.654Z,62.29
2023-03-29T12:49:38.607Z,62.58
2023-03-29T12:50:38.618Z,59.06
2023-03-29T12:51:38.639Z,59.63
2023-03-29T12:52:38.579Z,61.35